createdAt,value
2018-07-03T00:00:34.886Z,95433.72
2018-07-03T00:03:03.575Z,95430.98
2018-07-03T00:05:32.343Z,95429.95
2018-07-03T00:08:00.982Z,95433.84
2018-07-03T00:10:29.690Z,95444.57
2018-07-03T00:12:58.383Z,95441.26
2018-07-03T00:15:27.039Z,95436.36
2018-07-03T00:17:56.059Z,95428.73
2018-07-03T00:20:24.739Z,95429.09
2018-07-03T00:22:53.539Z,95438.27
2018-07-03T00:25:22.511Z,95438.48
2018-07-03T00:27:51.780Z,95435.75
2018-07-03T00:30:20.430Z,95439.67
2018-07-03T00:32:49.090Z,95441.65
2018-07-03T00:35:17.729Z,95441.47
2018-07-03T00:37:46.715Z,95447.55
2018-07-03T00:40:15.367Z,95450.47
2018-07-03T00:42:43.962Z,95455.94
2018-07-03T00:45:12.584Z,95457.70
2018-07-03T00:47:41.219Z,95453.39
2018-07-03T00:50:09.883Z,95455.88
2018-07-03T00:52:38.527Z,95448.63
2018-07-03T00:55:07.211Z,95454.10
2018-07-03T00:57:35.920Z,95448.45
2018-07-03T01:00:15.472Z,95449.81
2018-07-03T01:02:44.335Z,95449.61
2018-07-03T01:05:13.201Z,95445.11
2018-07-03T01:07:41.830Z,95445.86
2018-07-03T01:10:10.450Z,95448.77
2018-07-03T01:12:39.184Z,95392.25
2018-07-03T01:15:07.859Z,95443.48
2018-07-03T01:17:36.589Z,95460.90
2018-07-03T01:20:05.832Z,95455.56
2018-07-03T01:22:34.528Z,95454.20
2018-07-03T01:25:03.475Z,95456.09
2018-07-03T01:27:32.100Z,95463.77
2018-07-03T01:30:01.100Z,95458.08
2018-07-03T01:32:29.799Z,95454.28
2018-07-03T01:34:58.513Z,95464.43
2018-07-03T01:37:27.444Z,95465.61
2018-07-03T01:39:56.199Z,95459.92
2018-07-03T01:42:24.815Z,95459.70
2018-07-03T01:44:53.499Z,95457.09
2018-07-03T01:47:22.195Z,95454.14
2018-07-03T01:49:51.214Z,95455.09
2018-07-03T01:52:19.831Z,95447.48
2018-07-03T01:54:48.427Z,95444.57
2018-07-03T01:57:17.099Z,95442.86
2018-07-03T01:59:46.255Z,95438.98
2018-07-03T02:02:14.968Z,95445.41
2018-07-03T02:04:43.600Z,95445.14
2018-07-03T02:07:12.313Z,95447.97
2018-07-03T02:09:41.266Z,95463.28
2018-07-03T02:12:09.924Z,95464.95
2018-07-03T02:14:38.556Z,95463.36
2018-07-03T02:17:07.625Z,95469.89
2018-07-03T02:19:36.535Z,95460.32
2018-07-03T02:22:05.194Z,95451.91
2018-07-03T02:24:33.936Z,95463.50
2018-07-03T02:27:02.607Z,95464.52
2018-07-03T02:29:31.237Z,95467.77
2018-07-03T02:32:00.146Z,95467.16
2018-07-03T02:34:29.000Z,95466.47
2018-07-03T02:36:57.879Z,95467.13
2018-07-03T02:39:26.872Z,95476.50
2018-07-03T02:41:55.529Z,95473.36
2018-07-03T02:44:24.260Z,95478.83
2018-07-03T02:46:53.005Z,95480.48
2018-07-03T02:49:21.711Z,95481.02
2018-07-03T02:51:50.359Z,95478.20
2018-07-03T02:54:19.046Z,95488.83
2018-07-03T02:56:47.735Z,95487.86
2018-07-03T02:59:16.411Z,95491.37
2018-07-03T03:01:45.104Z,95492.61
2018-07-03T03:04:14.018Z,95490.63
2018-07-03T03:06:42.784Z,95492.05
2018-07-03T03:09:12.766Z,95489.04
2018-07-03T03:11:41.736Z,95495.81
2018-07-03T03:14:10.383Z,95493.64
2018-07-03T03:16:39.093Z,95492.44
2018-07-03T03:19:07.782Z,95496.71
2018-07-03T03:21:36.414Z,95498.13
2018-07-03T03:24:05.352Z,95502.41
2018-07-03T03:26:34.263Z,95498.95
2018-07-03T03:29:02.875Z,95491.95
2018-07-03T03:31:31.824Z,95497.05
2018-07-03T03:34:00.463Z,95506.67
2018-07-03T03:36:29.171Z,95470.63
2018-07-03T03:38:57.866Z,95503.59
2018-07-03T03:41:26.777Z,95500.38
2018-07-03T03:43:55.427Z,95501.21
2018-07-03T03:46:24.118Z,95493.02
2018-07-03T03:48:52.952Z,95497.74
2018-07-03T03:51:21.817Z,95492.77
2018-07-03T03:53:50.477Z,95497.90
2018-07-03T03:56:19.147Z,95496.01
2018-07-03T03:58:47.816Z,95507.00
2018-07-03T04:01:16.521Z,95508.85
2018-07-03T04:03:45.207Z,95510.55
2018-07-03T04:06:13.863Z,95342.86
2018-07-03T04:08:42.577Z,95510.63
2018-07-03T04:11:11.811Z,95501.69
2018-07-03T04:13:40.699Z,95505.45
2018-07-03T04:16:09.619Z,95504.66
2018-07-03T04:18:38.277Z,95510.90
2018-07-03T04:21:08.046Z,95514.45
2018-07-03T04:23:37.573Z,95521.30
2018-07-03T04:26:06.260Z,95514.45
2018-07-03T04:28:35.586Z,95518.44
2018-07-03T04:31:04.647Z,95521.59
2018-07-03T04:33:33.807Z,95524.91
2018-07-03T04:36:03.594Z,95522.58
2018-07-03T04:38:32.567Z,95527.56
2018-07-03T04:41:01.577Z,95534.80
2018-07-03T04:43:30.615Z,95532.48
2018-07-03T04:45:59.653Z,95530.95
2018-07-03T04:48:28.322Z,95523.28
2018-07-03T04:50:57.014Z,95527.59
2018-07-03T04:53:26.533Z,95527.60
2018-07-03T04:55:55.396Z,95539.34
2018-07-03T04:58:24.079Z,95536.45
2018-07-03T05:00:53.135Z,95545.26
2018-07-03T05:03:21.802Z,95537.64
2018-07-03T05:05:50.592Z,95542.93
2018-07-03T05:08:19.322Z,95541.00
2018-07-03T05:10:48.018Z,95534.70
2018-07-03T05:13:16.767Z,95531.77
2018-07-03T05:15:45.563Z,95535.84
2018-07-03T05:18:14.327Z,95538.95
2018-07-03T05:20:43.186Z,95547.09
2018-07-03T05:23:12.054Z,95541.30
2018-07-03T05:25:40.864Z,95532.49
2018-07-03T05:28:09.754Z,95538.69
2018-07-03T05:30:38.685Z,95531.19
2018-07-03T05:33:07.730Z,95538.63
2018-07-03T05:35:36.616Z,95537.33
2018-07-03T05:38:05.414Z,95535.28
2018-07-03T05:40:34.503Z,95534.23
2018-07-03T05:43:03.543Z,95537.45
2018-07-03T05:45:32.418Z,95536.89
2018-07-03T05:48:01.235Z,95533.36
2018-07-03T05:50:30.131Z,95538.71
2018-07-03T05:52:58.832Z,95542.22
2018-07-03T05:55:28.048Z,95527.68
2018-07-03T05:57:57.347Z,95526.05
2018-07-03T06:00:26.084Z,95525.15
2018-07-03T06:02:55.029Z,95519.08
2018-07-03T06:05:23.835Z,95519.58
2018-07-03T06:07:52.866Z,95518.60
2018-07-03T06:10:21.828Z,95524.14
2018-07-03T06:12:50.737Z,95517.55
2018-07-03T06:15:19.394Z,95520.71
2018-07-03T06:17:48.130Z,95518.83
2018-07-03T06:20:16.995Z,95516.16
2018-07-03T06:22:45.782Z,95515.11
2018-07-03T06:25:14.641Z,95527.59
2018-07-03T06:27:43.596Z,95510.39
2018-07-03T06:30:12.383Z,95511.84
2018-07-03T06:32:41.219Z,95512.09
2018-07-03T06:35:10.020Z,95510.73
2018-07-03T06:37:39.535Z,95508.28
2018-07-03T06:40:08.061Z,95512.65
2018-07-03T06:42:36.957Z,95513.18
2018-07-03T06:45:06.192Z,95511.92
2018-07-03T06:47:35.300Z,95513.15
2018-07-03T06:50:04.476Z,95513.52
2018-07-03T06:52:33.262Z,95509.63
2018-07-03T06:55:02.611Z,95511.75
2018-07-03T06:57:31.374Z,95517.56
2018-07-03T07:00:00.408Z,95507.05
2018-07-03T07:02:32.497Z,95511.39
2018-07-03T07:05:19.396Z,95510.31
2018-07-03T07:08:04.291Z,95512.72
2018-07-03T07:10:49.010Z,95507.90
2018-07-03T07:13:20.875Z,95508.37
2018-07-03T07:15:49.585Z,95506.98
2018-07-03T07:18:18.280Z,95499.07
2018-07-03T07:20:47.573Z,95497.25
2018-07-03T07:23:17.416Z,95499.31
2018-07-03T07:25:46.351Z,95498.16
2018-07-03T07:28:15.104Z,95496.62
2018-07-03T07:30:43.965Z,95503.33
2018-07-03T07:33:12.719Z,95494.79
2018-07-03T07:35:42.366Z,95489.59
2018-07-03T07:38:12.155Z,95494.23
2018-07-03T07:40:41.105Z,95486.98
2018-07-03T07:43:09.838Z,95485.10
2018-07-03T07:45:38.856Z,95488.03
2018-07-03T07:48:08.093Z,95485.52
2018-07-03T07:50:36.854Z,95484.81
2018-07-03T07:53:05.520Z,95486.78
2018-07-03T07:55:34.695Z,95482.77
2018-07-03T07:58:04.427Z,95483.61
2018-07-03T08:00:34.512Z,95481.78
2018-07-03T08:03:03.543Z,95483.47
2018-07-03T08:05:33.409Z,95471.84
2018-07-03T08:08:02.547Z,95475.05
2018-07-03T08:10:31.392Z,95477.62
2018-07-03T08:13:01.204Z,95477.20
2018-07-03T08:15:30.278Z,95474.84
2018-07-03T08:17:59.291Z,95473.26
2018-07-03T08:20:28.071Z,95473.78
2018-07-03T08:22:56.988Z,95469.67
2018-07-03T08:25:26.870Z,95471.29
2018-07-03T08:27:56.706Z,95467.05
2018-07-03T08:30:26.003Z,95468.99
2018-07-03T08:32:55.807Z,95465.53
2018-07-03T08:35:27.431Z,95468.20
2018-07-03T08:37:56.530Z,95464.13
2018-07-03T08:40:26.258Z,95467.52
2018-07-03T08:42:55.625Z,95463.64
2018-07-03T08:45:25.143Z,95453.26
2018-07-03T08:47:54.262Z,95460.53
2018-07-03T08:50:24.328Z,95454.66
2018-07-03T08:52:53.637Z,95463.17
2018-07-03T08:55:22.542Z,95454.00
2018-07-03T08:57:51.245Z,95289.63
2018-07-03T09:00:20.866Z,95458.81
2018-07-03T09:02:50.236Z,95345.86
2018-07-03T09:05:19.167Z,95452.84
2018-07-03T09:07:48.374Z,95448.14
2018-07-03T09:10:17.266Z,95445.83
2018-07-03T09:12:46.260Z,95444.28
2018-07-03T09:15:15.216Z,95445.98
2018-07-03T09:17:45.048Z,95442.87
2018-07-03T09:20:13.794Z,95442.50
2018-07-03T09:22:42.926Z,95437.87
2018-07-03T09:25:11.973Z,95431.47
2018-07-03T09:27:40.736Z,95424.44
2018-07-03T09:30:10.608Z,95429.89
2018-07-03T09:32:39.485Z,95430.55
2018-07-03T09:35:08.632Z,95421.00
2018-07-03T09:37:38.511Z,95416.15
2018-07-03T09:40:07.543Z,95416.11
2018-07-03T09:42:36.267Z,95415.52
2018-07-03T09:45:06.310Z,95414.99
2018-07-03T09:47:35.464Z,95417.75
2018-07-03T09:50:04.400Z,95243.75
2018-07-03T09:52:33.367Z,95418.30
2018-07-03T09:55:02.333Z,95409.17
2018-07-03T09:57:32.185Z,95410.33
2018-07-03T10:00:01.612Z,95399.94
2018-07-03T10:02:30.303Z,95401.69
2018-07-03T10:04:59.032Z,95406.35
2018-07-03T10:07:28.014Z,95386.97
2018-07-03T10:09:57.240Z,95392.75
2018-07-03T10:12:26.521Z,95395.88
2018-07-03T10:14:55.246Z,95394.88
2018-07-03T10:17:25.384Z,95395.68
2018-07-03T10:19:55.697Z,95388.77
2018-07-03T10:22:24.754Z,95396.63
2018-07-03T10:24:53.619Z,95395.84
2018-07-03T10:27:22.719Z,95389.52
2018-07-03T10:29:51.675Z,95390.17
2018-07-03T10:32:20.971Z,95398.58
2018-07-03T10:34:49.928Z,95387.50
2018-07-03T10:37:18.883Z,95390.58
2018-07-03T10:39:47.902Z,95385.98
2018-07-03T10:42:17.110Z,95384.73
2018-07-03T10:44:45.968Z,95382.13
2018-07-03T10:47:15.746Z,95379.63
2018-07-03T10:49:44.540Z,95380.20
2018-07-03T10:52:13.480Z,95372.94
2018-07-03T10:54:43.484Z,95377.30
2018-07-03T10:57:12.180Z,95374.14
2018-07-03T10:59:40.908Z,95368.36
2018-07-03T11:02:10.115Z,95365.60
2018-07-03T11:04:38.898Z,95364.77
2018-07-03T11:07:07.679Z,95362.38
2018-07-03T11:09:37.239Z,95360.87
2018-07-03T11:12:06.946Z,95348.73
2018-07-03T11:14:35.985Z,95355.66
2018-07-03T11:17:04.984Z,95354.13
2018-07-03T11:19:34.115Z,95348.77
2018-07-03T11:22:03.052Z,95345.85
2018-07-03T11:24:31.735Z,95352.19
2018-07-03T11:27:00.436Z,95347.08
2018-07-03T11:29:29.320Z,95351.48
2018-07-03T11:31:58.199Z,95346.92
2018-07-03T11:34:26.991Z,95348.09
2018-07-03T11:36:56.167Z,95341.72
2018-07-03T11:39:25.383Z,95342.16
2018-07-03T11:41:54.191Z,95331.64
2018-07-03T11:44:23.758Z,95332.02
2018-07-03T11:46:52.577Z,95332.81
2018-07-03T11:49:22.353Z,95332.05
2018-07-03T11:51:51.115Z,95333.36
2018-07-03T11:54:19.840Z,95330.45
2018-07-03T11:56:49.133Z,95329.86
2018-07-03T11:59:17.894Z,95328.64
2018-07-03T12:01:47.080Z,95312.91
2018-07-03T12:04:16.341Z,95319.39
2018-07-03T12:06:45.261Z,95312.11
2018-07-03T12:09:14.256Z,95315.28
2018-07-03T12:11:43.406Z,95304.78
2018-07-03T12:14:12.419Z,95302.17
2018-07-03T12:16:41.157Z,95300.19
2018-07-03T12:19:10.038Z,95295.80
2018-07-03T12:21:39.045Z,95290.62
2018-07-03T12:24:07.773Z,95295.02
2018-07-03T12:26:36.839Z,95287.16
2018-07-03T12:29:06.136Z,95281.44
2018-07-03T12:31:34.791Z,95289.89
2018-07-03T12:34:03.399Z,95286.70
2018-07-03T12:36:32.636Z,95228.05
2018-07-03T12:39:02.036Z,95277.51
2018-07-03T12:41:31.012Z,95276.11
2018-07-03T12:43:59.769Z,95269.71
2018-07-03T12:46:29.046Z,95267.03
2018-07-03T12:48:57.723Z,95271.97
2018-07-03T12:51:26.662Z,95272.06
2018-07-03T12:53:55.507Z,95268.48
2018-07-03T12:56:24.976Z,95261.97
2018-07-03T12:58:54.548Z,95265.41
2018-07-03T13:01:23.280Z,95268.20
2018-07-03T13:03:52.318Z,95264.95
2018-07-03T13:06:21.047Z,95269.27
2018-07-03T13:08:50.211Z,95268.39
2018-07-03T13:11:19.080Z,95269.13
2018-07-03T13:13:48.327Z,95269.38
2018-07-03T13:16:17.064Z,95270.98
2018-07-03T13:18:45.767Z,95271.62
2018-07-03T13:21:15.421Z,95270.53
2018-07-03T13:23:44.141Z,95270.04
2018-07-03T13:26:12.875Z,95272.39
2018-07-03T13:28:41.788Z,95269.28
2018-07-03T13:31:10.534Z,95274.38
2018-07-03T13:33:39.452Z,95268.59
2018-07-03T13:36:08.490Z,95271.45
2018-07-03T13:38:37.394Z,95270.23
2018-07-03T13:41:06.508Z,95276.22
2018-07-03T13:43:35.585Z,95273.85
2018-07-03T13:46:04.363Z,95275.17
2018-07-03T13:48:33.485Z,95276.70
2018-07-03T13:51:02.221Z,95266.58
2018-07-03T13:53:32.040Z,95273.91
2018-07-03T13:56:00.775Z,95264.56
2018-07-03T13:58:29.767Z,95268.37
2018-07-03T14:00:58.551Z,95261.47
2018-07-03T14:03:27.261Z,95262.17
2018-07-03T14:05:56.095Z,95269.72
2018-07-03T14:08:25.240Z,95263.31
2018-07-03T14:10:54.116Z,95268.33
2018-07-03T14:13:22.772Z,95265.91
2018-07-03T14:15:51.693Z,95267.37
2018-07-03T14:18:25.006Z,95268.94
2018-07-03T14:20:54.910Z,95270.51
2018-07-03T14:23:23.568Z,95271.39
2018-07-03T14:25:52.671Z,95261.16
2018-07-03T14:28:21.471Z,95264.41
2018-07-03T14:30:50.242Z,95264.61
2018-07-03T14:33:19.288Z,95264.47
2018-07-03T14:35:48.104Z,95263.78
2018-07-03T14:38:16.751Z,95158.25
2018-07-03T14:40:45.510Z,95261.47
2018-07-03T14:43:14.220Z,95259.81
2018-07-03T14:45:44.162Z,95259.23
2018-07-03T14:48:13.452Z,95256.91
2018-07-03T14:50:42.150Z,95256.59
2018-07-03T14:53:12.679Z,95256.77
2018-07-03T14:55:41.516Z,95262.48
2018-07-03T14:58:10.170Z,95255.02
2018-07-03T15:00:39.044Z,95262.29
2018-07-03T15:03:07.724Z,95263.08
2018-07-03T15:05:36.453Z,95259.52
2018-07-03T15:08:05.472Z,95254.59
2018-07-03T15:10:34.114Z,95262.96
2018-07-03T15:13:04.242Z,95257.84
2018-07-03T15:15:32.912Z,95259.08
2018-07-03T15:18:01.668Z,95263.59
2018-07-03T15:20:30.704Z,95260.81
2018-07-03T15:22:59.847Z,95265.89
2018-07-03T15:25:35.252Z,95261.38
2018-07-03T15:30:54.070Z,95262.34
2018-07-03T15:33:22.723Z,95273.86
2018-07-03T15:35:51.532Z,95271.43
2018-07-03T15:38:20.150Z,95264.95
2018-07-03T15:40:48.972Z,95268.37
2018-07-03T15:43:18.618Z,95277.91
2018-07-03T15:45:47.273Z,95291.58
2018-07-03T15:48:43.075Z,95287.88
2018-07-03T15:51:11.930Z,95286.76
2018-07-03T15:53:43.971Z,95289.39
2018-07-03T15:56:12.846Z,95293.93
2018-07-03T15:58:41.473Z,95291.20
2018-07-03T16:01:10.134Z,95302.06
2018-07-03T16:04:15.037Z,95302.81
2018-07-03T16:07:21.941Z,95301.50
2018-07-03T16:09:50.745Z,95302.08
2018-07-03T16:12:30.154Z,95304.89
2018-07-03T16:14:58.936Z,95306.98
2018-07-03T16:17:27.824Z,95303.05
2018-07-03T16:20:01.604Z,95307.51
2018-07-03T16:22:30.720Z,95301.45
2018-07-03T16:24:59.779Z,95308.09
2018-07-03T16:27:28.574Z,95302.06
2018-07-03T16:29:57.752Z,95305.11
2018-07-03T16:32:26.446Z,95302.02
2018-07-03T16:34:55.203Z,95301.32
2018-07-03T16:37:24.080Z,95309.58
2018-07-03T16:39:52.871Z,95311.72
2018-07-03T16:42:21.570Z,95314.56
2018-07-03T16:44:50.205Z,95322.73
2018-07-03T16:47:23.144Z,95327.21
2018-07-03T16:49:53.374Z,95326.05
2018-07-03T16:52:22.152Z,95322.62
2018-07-03T16:54:50.835Z,95327.39
2018-07-03T16:57:19.516Z,95328.50
2018-07-03T16:59:53.577Z,95329.23
2018-07-03T17:02:34.224Z,95138.93
2018-07-03T17:05:03.787Z,95344.55
2018-07-03T17:07:32.495Z,95279.09
2018-07-03T17:10:03.895Z,95359.87
2018-07-03T17:12:32.878Z,95358.44
2018-07-03T17:15:01.841Z,95365.20
2018-07-03T17:17:31.103Z,95364.48
2018-07-03T17:19:59.783Z,95376.39
2018-07-03T17:22:28.453Z,95364.98
2018-07-03T17:24:57.139Z,95375.36
2018-07-03T17:27:25.832Z,95373.30
2018-07-03T17:29:54.521Z,95393.01
2018-07-03T17:32:23.238Z,95394.56
2018-07-03T17:34:51.954Z,95393.66
2018-07-03T17:37:21.102Z,95397.81
2018-07-03T17:40:01.052Z,95398.31
2018-07-03T17:42:40.839Z,95405.17
2018-07-03T17:45:51.084Z,95408.88
2018-07-03T17:48:38.853Z,95385.13
2018-07-03T17:51:07.599Z,95400.59
2018-07-03T17:53:36.697Z,95402.46
2018-07-03T17:56:05.611Z,95410.97
2018-07-03T17:58:45.200Z,95410.69
2018-07-03T18:01:14.020Z,95401.64
2018-07-03T18:03:42.675Z,95406.61
2018-07-03T18:06:11.750Z,95400.83
2018-07-03T18:08:40.433Z,95403.35
2018-07-03T18:11:09.965Z,95406.50
2018-07-03T18:13:38.619Z,95402.72
2018-07-03T18:16:08.512Z,95402.08
2018-07-03T18:18:37.194Z,95404.69
2018-07-03T18:21:06.063Z,95411.33
2018-07-03T18:23:34.776Z,95410.25
2018-07-03T18:26:03.607Z,95413.94
2018-07-03T18:28:33.129Z,95417.94
2018-07-03T18:31:01.978Z,95417.38
2018-07-03T18:33:31.103Z,95409.97
2018-07-03T18:35:59.836Z,95418.89
2018-07-03T18:38:29.109Z,95428.11
2018-07-03T18:40:57.730Z,95432.97
2018-07-03T18:43:27.028Z,95444.98
2018-07-03T18:45:55.760Z,95431.80
2018-07-03T18:48:24.492Z,95221.57
2018-07-03T18:50:53.251Z,95434.51
2018-07-03T18:53:21.991Z,95437.89
2018-07-03T18:55:54.674Z,95437.16
2018-07-03T18:58:23.333Z,95432.39
2018-07-03T19:00:52.176Z,95439.67
2018-07-03T19:03:21.242Z,95446.39
2018-07-03T19:05:49.926Z,95446.62
2018-07-03T19:08:18.690Z,95445.33
2018-07-03T19:10:47.537Z,95444.39
2018-07-03T19:13:16.782Z,95443.66
2018-07-03T19:15:45.745Z,95444.28
2018-07-03T19:18:14.639Z,95455.34
2018-07-03T19:20:43.591Z,95456.80
2018-07-03T19:23:12.258Z,95463.60
2018-07-03T19:25:41.128Z,95464.05
2018-07-03T19:28:09.947Z,95464.31
2018-07-03T19:30:39.786Z,95466.33
2018-07-03T19:33:08.569Z,95464.97
2018-07-03T19:35:37.209Z,95468.13
2018-07-03T19:38:06.218Z,95468.78
2018-07-03T19:40:34.901Z,95471.16
2018-07-03T19:43:24.284Z,95480.97
2018-07-03T19:45:53.871Z,95473.92
2018-07-03T19:48:23.054Z,95468.43
2018-07-03T19:50:53.135Z,95477.12
2018-07-03T19:53:21.877Z,95479.34
2018-07-03T19:55:51.794Z,95474.20
2018-07-03T19:58:21.006Z,95481.28
2018-07-03T20:00:50.950Z,95481.28
2018-07-03T20:03:19.673Z,95478.11
2018-07-03T20:05:48.402Z,95476.69
2018-07-03T20:08:17.215Z,95464.88
2018-07-03T20:10:45.978Z,95302.71
2018-07-03T20:13:16.204Z,95472.28
2018-07-03T20:15:44.894Z,95471.89
2018-07-03T20:18:14.098Z,95480.10
2018-07-03T20:20:42.965Z,95472.48
2018-07-03T20:23:11.622Z,95474.02
2018-07-03T20:25:40.604Z,95472.50
2018-07-03T20:28:09.547Z,95469.42
2018-07-03T20:30:38.302Z,95303.70
2018-07-03T20:33:06.914Z,95469.42
2018-07-03T20:35:35.612Z,95471.55
2018-07-03T20:38:06.592Z,95464.72
2018-07-03T20:41:08.124Z,95460.17
2018-07-03T20:43:40.005Z,95464.52
2018-07-03T20:46:10.140Z,95464.72
2018-07-03T20:48:38.926Z,95464.89
2018-07-03T20:51:07.769Z,95369.92
2018-07-03T20:53:39.282Z,95465.72
2018-07-03T20:56:08.288Z,95463.14
2018-07-03T20:58:36.954Z,95472.77
2018-07-03T21:01:20.073Z,95471.02
2018-07-03T21:04:00.640Z,95478.28
2018-07-03T21:06:29.244Z,95019.69
2018-07-03T21:08:57.985Z,95466.95
2018-07-03T21:11:27.272Z,95469.75
2018-07-03T21:13:56.731Z,95474.13
2018-07-03T21:16:25.395Z,95476.02
2018-07-03T21:18:54.381Z,95473.41
2018-07-03T21:21:23.043Z,95473.86
2018-07-03T21:23:51.674Z,95470.16
2018-07-03T21:26:20.326Z,95468.20
2018-07-03T21:28:48.950Z,95474.83
2018-07-03T21:31:17.687Z,95476.20
2018-07-03T21:33:46.263Z,95474.03
2018-07-03T21:36:14.984Z,95476.81
2018-07-03T21:38:43.595Z,95477.61
2018-07-03T21:41:12.276Z,95482.21
2018-07-03T21:43:41.168Z,95481.80
2018-07-03T21:46:09.887Z,95483.20
2018-07-03T21:48:38.574Z,95481.86
2018-07-03T21:51:07.531Z,95479.95
2018-07-03T21:53:36.238Z,95482.11
2018-07-03T21:56:04.958Z,95478.58
2018-07-03T21:58:33.763Z,95474.45
2018-07-03T22:01:02.731Z,95474.71
2018-07-03T22:03:31.367Z,95470.38
2018-07-03T22:06:00.022Z,95469.61
2018-07-03T22:08:28.661Z,95480.63
2018-07-03T22:10:57.311Z,95476.13
2018-07-03T22:13:25.966Z,95469.27
2018-07-03T22:15:54.580Z,95472.61
2018-07-03T22:18:23.267Z,95468.49
2018-07-03T22:20:52.014Z,95460.66
2018-07-03T22:23:20.694Z,95465.52
2018-07-03T22:25:49.442Z,95468.27
2018-07-03T22:28:18.133Z,95465.31
2018-07-03T22:30:46.832Z,95468.66
2018-07-03T22:33:15.531Z,95470.62
2018-07-03T22:35:44.246Z,95468.06
2018-07-03T22:38:12.999Z,95460.84
2018-07-03T22:40:41.595Z,95465.92
2018-07-03T22:43:10.258Z,95462.22
2018-07-03T22:45:38.918Z,95466.92
2018-07-03T22:48:07.618Z,95467.09
2018-07-03T22:50:36.294Z,95465.72
2018-07-03T22:53:05.281Z,95462.80
2018-07-03T22:55:34.065Z,95464.56
2018-07-03T22:58:02.708Z,95459.67
2018-07-03T23:00:31.417Z,95461.05
2018-07-03T23:03:00.393Z,95455.34
2018-07-03T23:05:29.321Z,95457.30
2018-07-03T23:07:57.984Z,95456.55
2018-07-03T23:10:26.855Z,95457.70
2018-07-03T23:12:55.491Z,95458.87
2018-07-03T23:15:24.735Z,95453.20
2018-07-03T23:17:53.372Z,95459.67
2018-07-03T23:20:22.021Z,95461.03
2018-07-03T23:22:50.934Z,95463.39
2018-07-03T23:25:19.574Z,95463.39
2018-07-03T23:27:48.181Z,95457.71
2018-07-03T23:30:16.842Z,95468.89
2018-07-03T23:32:45.736Z,95473.56
2018-07-03T23:35:16.283Z,95472.00
2018-07-03T23:37:44.955Z,95472.02
2018-07-03T23:40:13.934Z,95476.70
2018-07-03T23:42:42.613Z,95473.58
2018-07-03T23:45:11.393Z,95473.39
2018-07-03T23:47:51.172Z,95468.09
2018-07-03T23:50:30.785Z,95472.41
2018-07-03T23:53:10.519Z,95477.89
2018-07-03T23:55:50.362Z,95476.89
2018-07-03T23:58:30.396Z,95481.78
